sensor_id;sensor_type;location;lat;lon;timestamp;pressure;altitude;pressure_sealevel;temperature;humidity
55373;BME280;41249;47.838;16.490;2022-07-24T00:01:38;99316.09;;;16.54;100.00
55373;BME280;41249;47.838;16.490;2022-07-24T00:04:06;99313.81;;;16.51;100.00
55373;BME280;41249;47.838;16.490;2022-07-24T00:06:34;99312.81;;;16.52;100.00
55373;BME280;41249;47.838;16.490;2022-07-24T00:09:00;99314.47;;;16.46;100.00
55373;BME280;41249;47.838;16.490;2022-07-24T00:11:28;99312.81;;;16.45;100.00
55373;BME280;41249;47.838;16.490;2022-07-24T00:13:55;99317.78;;;16.35;100.00
55373;BME280;41249;47.838;16.490;2022-07-24T00:16:21;99320.69;;;16.33;100.00
55373;BME280;41249;47.838;16.490;2022-07-24T00:18:48;99313.28;;;16.29;100.00
55373;BME280;41249;47.838;16.490;2022-07-24T00:21:15;99312.03;;;16.25;100.00
55373;BME280;41249;47.838;16.490;2022-07-24T00:23:42;99315.94;;;16.22;100.00
55373;BME280;41249;47.838;16.490;2022-07-24T00:26:10;99316.78;;;16.23;100.00
55373;BME280;41249;47.838;16.490;2022-07-24T00:28:38;99319.47;;;16.23;100.00
55373;BME280;41249;47.838;16.490;2022-07-24T00:31:05;99314.94;;;16.30;100.00
55373;BME280;41249;47.838;16.490;2022-07-24T00:33:32;99321.50;;;16.27;100.00
55373;BME280;41249;47.838;16.490;2022-07-24T00:35:59;99319.03;;;16.26;100.00
55373;BME280;41249;47.838;16.490;2022-07-24T00:38:26;99324.41;;;16.26;100.00
55373;BME280;41249;47.838;16.490;2022-07-24T00:40:52;99317.00;;;16.28;100.00
55373;BME280;41249;47.838;16.490;2022-07-24T00:43:19;99312.44;;;16.35;100.00
55373;BME280;41249;47.838;16.490;2022-07-24T00:45:47;99328.34;;;16.30;100.00
55373;BME280;41249;47.838;16.490;2022-07-24T00:48:14;99314.09;;;16.29;100.00
55373;BME280;41249;47.838;16.490;2022-07-24T00:50:42;99312.66;;;16.33;100.00
55373;BME280;41249;47.838;16.490;2022-07-24T00:53:10;99321.50;;;16.27;100.00
55373;BME280;41249;47.838;16.490;2022-07-24T00:55:37;99323.00;;;16.30;100.00
55373;BME280;41249;47.838;16.490;2022-07-24T00:58:04;99314.94;;;16.30;100.00
55373;BME280;41249;47.838;16.490;2022-07-24T01:00:30;99327.47;;;16.36;100.00
55373;BME280;41249;47.838;16.490;2022-07-24T01:02:57;99309.59;;;16.30;100.00
55373;BME280;41249;47.838;16.490;2022-07-24T01:05:25;99322.56;;;16.33;100.00
55373;BME280;41249;47.838;16.490;2022-07-24T01:07:52;99328.94;;;16.38;100.00
55373;BME280;41249;47.838;16.490;2022-07-24T01:10:19;99328.75;;;16.33;100.00
55373;BME280;41249;47.838;16.490;2022-07-24T01:12:46;99327.50;;;16.29;100.00
55373;BME280;41249;47.838;16.490;2022-07-24T01:15:13;99328.94;;;16.25;100.00
55373;BME280;41249;47.838;16.490;2022-07-24T01:17:41;99328.75;;;16.20;100.00
55373;BME280;41249;47.838;16.490;2022-07-24T01:20:09;99333.88;;;16.21;100.00
55373;BME280;41249;47.838;16.490;2022-07-24T01:22:36;99339.25;;;16.21;100.00
55373;BME280;41249;47.838;16.490;2022-07-24T01:25:03;99338.25;;;16.23;100.00
55373;BME280;41249;47.838;16.490;2022-07-24T01:27:30;99338.25;;;16.23;100.00
55373;BME280;41249;47.838;16.490;2022-07-24T01:29:57;99330.41;;;16.28;100.00
55373;BME280;41249;47.838;16.490;2022-07-24T01:32:24;99324.41;;;16.32;100.00
55373;BME280;41249;47.838;16.490;2022-07-24T01:34:51;99329.34;;;16.35;100.00
55373;BME280;41249;47.838;16.490;2022-07-24T01:37:17;99328.53;;;16.35;100.00
55373;BME280;41249;47.838;16.490;2022-07-24T01:39:44;99331.59;;;16.45;100.00
55373;BME280;41249;47.838;16.490;2022-07-24T01:42:11;99335.09;;;16.45;100.00
55373;BME280;41249;47.838;16.490;2022-07-24T01:44:38;99341.28;;;16.46;100.00
55373;BME280;41249;47.838;16.490;2022-07-24T01:47:05;99328.47;;;16.48;100.00
55373;BME280;41249;47.838;16.490;2022-07-24T01:49:31;99332.81;;;16.42;100.00
55373;BME280;41249;47.838;16.490;2022-07-24T01:51:58;99325.56;;;16.56;100.00
55373;BME280;41249;47.838;16.490;2022-07-24T01:54:25;99328.91;;;16.52;100.00
55373;BME280;41249;47.838;16.490;2022-07-24T01:56:51;99322.91;;;16.43;100.00
55373;BME280;41249;47.838;16.490;2022-07-24T01:59:18;99334.41;;;16.63;100.00
55373;BME280;41249;47.838;16.490;2022-07-24T02:01:46;99332.09;;;16.73;100.00
55373;BME280;41249;47.838;16.490;2022-07-24T02:04:12;99315.03;;;16.61;100.00
55373;BME280;41249;47.838;16.490;2022-07-24T02:06:39;99321.84;;;16.57;100.00
55373;BME280;41249;47.838;16.490;2022-07-24T02:09:06;99324.28;;;16.65;100.00
55373;BME280;41249;47.838;16.490;2022-07-24T02:11:33;99316.47;;;16.57;100.00
55373;BME280;41249;47.838;16.490;2022-07-24T02:14:00;99318.09;;;16.65;100.00
55373;BME280;41249;47.838;16.490;2022-07-24T02:16:27;99323.41;;;16.71;100.00
55373;BME280;41249;47.838;16.490;2022-07-24T02:18:55;99332.94;;;16.67;100.00
55373;BME280;41249;47.838;16.490;2022-07-24T02:21:22;99331.66;;;16.77;100.00
55373;BME280;41249;47.838;16.490;2022-07-24T02:23:49;99327.94;;;16.78;100.00
55373;BME280;41249;47.838;16.490;2022-07-24T02:26:15;99326.75;;;16.73;100.00
55373;BME280;41249;47.838;16.490;2022-07-24T02:28:42;99326.09;;;16.71;100.00
55373;BME280;41249;47.838;16.490;2022-07-24T02:31:09;99330.91;;;16.56;100.00
55373;BME280;41249;47.838;16.490;2022-07-24T02:33:35;99333.81;;;16.55;100.00
55373;BME280;41249;47.838;16.490;2022-07-24T02:36:02;99328.81;;;16.65;100.00
55373;BME280;41249;47.838;16.490;2022-07-24T02:38:30;99330.59;;;16.84;100.00
55373;BME280;41249;47.838;16.490;2022-07-24T02:40:57;99331.16;;;16.93;100.00
55373;BME280;41249;47.838;16.490;2022-07-24T02:43:23;99340.44;;;16.97;100.00
55373;BME280;41249;47.838;16.490;2022-07-24T02:45:50;99329.91;;;16.95;100.00
55373;BME280;41249;47.838;16.490;2022-07-24T02:48:19;99345.44;;;16.87;100.00
55373;BME280;41249;47.838;16.490;2022-07-24T02:50:46;99345.44;;;16.87;100.00
55373;BME280;41249;47.838;16.490;2022-07-24T02:53:13;99348.38;;;16.79;100.00
55373;BME280;41249;47.838;16.490;2022-07-24T02:55:40;99353.94;;;16.77;100.00
55373;BME280;41249;47.838;16.490;2022-07-24T02:58:07;99352.97;;;16.65;100.00
55373;BME280;41249;47.838;16.490;2022-07-24T03:00:34;99352.78;;;16.66;100.00
55373;BME280;41249;47.838;16.490;2022-07-24T03:03:01;99356.84;;;16.75;100.00
55373;BME280;41249;47.838;16.490;2022-07-24T03:05:28;99356.44;;;16.72;100.00
55373;BME280;41249;47.838;16.490;2022-07-24T03:07:55;99356.84;;;16.75;100.00
55373;BME280;41249;47.838;16.490;2022-07-24T03:10:22;99359.28;;;16.84;100.00
55373;BME280;41249;47.838;16.490;2022-07-24T03:12:49;99363.25;;;16.74;100.00
55373;BME280;41249;47.838;16.490;2022-07-24T03:15:16;99367.78;;;16.81;100.00
55373;BME280;41249;47.838;16.490;2022-07-24T03:17:51;99372.28;;;16.87;100.00
55373;BME280;41249;47.838;16.490;2022-07-24T03:20:24;99365.31;;;16.72;100.00
55373;BME280;41249;47.838;16.490;2022-07-24T03:22:51;99379.59;;;16.66;100.00
55373;BME280;41249;47.838;16.490;2022-07-24T03:25:18;99377.91;;;16.72;100.00
55373;BME280;41249;47.838;16.490;2022-07-24T03:27:46;99385.09;;;16.85;100.00
55373;BME280;41249;47.838;16.490;2022-07-24T03:30:15;99385.75;;;16.80;100.00
55373;BME280;41249;47.838;16.490;2022-07-24T03:32:42;99393.13;;;16.91;100.00
55373;BME280;41249;47.838;16.490;2022-07-24T03:35:09;99396.22;;;16.95;100.00
55373;BME280;41249;47.838;16.490;2022-07-24T03:37:38;99404.28;;;16.95;100.00
55373;BME280;41249;47.838;16.490;2022-07-24T03:40:05;99406.03;;;17.14;100.00
55373;BME280;41249;47.838;16.490;2022-07-24T03:42:32;99416.38;;;17.17;100.00
55373;BME280;41249;47.838;16.490;2022-07-24T03:44:59;99413.06;;;17.15;100.00
55373;BME280;41249;47.838;16.490;2022-07-24T03:47:26;99419.66;;;17.19;100.00
55373;BME280;41249;47.838;16.490;2022-07-24T03:49:53;99414.09;;;17.14;100.00
55373;BME280;41249;47.838;16.490;2022-07-24T03:52:20;99418.56;;;17.27;100.00
55373;BME280;41249;47.838;16.490;2022-07-24T03:54:50;99425.34;;;17.36;100.00
55373;BME280;41249;47.838;16.490;2022-07-24T03:57:17;99431.72;;;17.42;100.00
55373;BME280;41249;47.838;16.490;2022-07-24T03:59:44;99437.94;;;17.36;100.00
55373;BME280;41249;47.838;16.490;2022-07-24T04:02:11;99434.41;;;17.42;100.00
55373;BME280;41249;47.838;16.490;2022-07-24T04:04:38;99435.38;;;17.54;100.00
55373;BME280;41249;47.838;16.490;2022-07-24T04:07:04;99434.38;;;17.48;100.00
55373;BME280;41249;47.838;16.490;2022-07-24T04:09:31;99437.94;;;17.36;100.00
55373;BME280;41249;47.838;16.490;2022-07-24T04:11:59;99439.56;;;17.43;100.00
55373;BME280;41249;47.838;16.490;2022-07-24T04:14:26;99436.84;;;17.50;100.00
55373;BME280;41249;47.838;16.490;2022-07-24T04:16:52;99445.97;;;17.42;100.00
55373;BME280;41249;47.838;16.490;2022-07-24T04:19:19;99447.53;;;17.56;100.00
55373;BME280;41249;47.838;16.490;2022-07-24T04:21:46;99454.00;;;17.49;100.00
55373;BME280;41249;47.838;16.490;2022-07-24T04:24:13;99462.09;;;17.74;100.00
55373;BME280;41249;47.838;16.490;2022-07-24T04:26:39;99469.19;;;17.68;100.00
55373;BME280;41249;47.838;16.490;2022-07-24T04:29:06;99473.59;;;17.56;100.00
55373;BME280;41249;47.838;16.490;2022-07-24T04:31:34;99465.19;;;17.77;100.00
55373;BME280;41249;47.838;16.490;2022-07-24T04:34:01;99464.22;;;17.65;100.00
55373;BME280;41249;47.838;16.490;2022-07-24T04:36:28;99474.94;;;17.72;100.00
55373;BME280;41249;47.838;16.490;2022-07-24T04:38:55;99478.63;;;17.77;100.00
55373;BME280;41249;47.838;16.490;2022-07-24T04:41:22;99477.94;;;17.89;100.00
55373;BME280;41249;47.838;16.490;2022-07-24T04:43:49;99478.16;;;17.87;100.00
55373;BME280;41249;47.838;16.490;2022-07-24T04:46:17;99482.66;;;17.93;100.00
55373;BME280;41249;47.838;16.490;2022-07-24T04:48:44;99490.97;;;17.92;100.00
55373;BME280;41249;47.838;16.490;2022-07-24T04:51:11;99491.44;;;17.82;100.00
55373;BME280;41249;47.838;16.490;2022-07-24T04:53:38;99491.38;;;17.89;100.00
55373;BME280;41249;47.838;16.490;2022-07-24T04:56:06;99495.97;;;18.13;100.00
55373;BME280;41249;47.838;16.490;2022-07-24T04:58:33;99503.06;;;18.32;100.00
55373;BME280;41249;47.838;16.490;2022-07-24T05:00:59;99505.41;;;18.47;100.00
55373;BME280;41249;47.838;16.490;2022-07-24T05:03:27;99497.13;;;18.49;100.00
55373;BME280;41249;47.838;16.490;2022-07-24T05:05:53;99500.34;;;18.57;100.00
55373;BME280;41249;47.838;16.490;2022-07-24T05:08:20;99504.44;;;18.60;100.00
55373;BME280;41249;47.838;16.490;2022-07-24T05:10:47;99508.59;;;18.37;100.00
55373;BME280;41249;47.838;16.490;2022-07-24T05:13:13;99517.16;;;18.28;100.00
55373;BME280;41249;47.838;16.490;2022-07-24T05:15:40;99516.06;;;18.60;100.00
55373;BME280;41249;47.838;16.490;2022-07-24T05:18:07;99524.34;;;18.59;100.00
55373;BME280;41249;47.838;16.490;2022-07-24T05:20:34;99526.84;;;18.54;100.00
55373;BME280;41249;47.838;16.490;2022-07-24T05:23:00;99528.50;;;18.61;100.00
55373;BME280;41249;47.838;16.490;2022-07-24T05:25:27;99523.97;;;18.55;100.00
55373;BME280;41249;47.838;16.490;2022-07-24T05:27:54;99522.66;;;18.64;100.00
55373;BME280;41249;47.838;16.490;2022-07-24T05:30:20;99522.47;;;18.59;100.00
55373;BME280;41249;47.838;16.490;2022-07-24T05:32:47;99524.13;;;18.85;100.00
55373;BME280;41249;47.838;16.490;2022-07-24T05:35:14;99523.16;;;18.55;100.00
55373;BME280;41249;47.838;16.490;2022-07-24T05:37:53;99536.66;;;18.48;100.00
55373;BME280;41249;47.838;16.490;2022-07-24T05:40:19;99532.41;;;18.59;100.00
55373;BME280;41249;47.838;16.490;2022-07-24T05:42:46;99525.06;;;18.48;100.00
55373;BME280;41249;47.838;16.490;2022-07-24T05:45:13;99525.84;;;18.55;100.00
55373;BME280;41249;47.838;16.490;2022-07-24T05:47:40;99531.94;;;18.44;100.00
55373;BME280;41249;47.838;16.490;2022-07-24T05:50:09;99542.34;;;18.65;100.00
55373;BME280;41249;47.838;16.490;2022-07-24T05:52:36;99534.56;;;18.75;100.00
55373;BME280;41249;47.838;16.490;2022-07-24T05:55:04;99526.50;;;18.93;100.00
55373;BME280;41249;47.838;16.490;2022-07-24T05:57:31;99536.31;;;19.06;100.00
55373;BME280;41249;47.838;16.490;2022-07-24T05:59:58;99532.19;;;18.85;100.00
55373;BME280;41249;47.838;16.490;2022-07-24T06:02:37;99527.56;;;19.11;100.00
55373;BME280;41249;47.838;16.490;2022-07-24T06:05:04;99522.63;;;19.08;100.00
55373;BME280;41249;47.838;16.490;2022-07-24T06:07:31;99520.22;;;18.81;100.00
55373;BME280;41249;47.838;16.490;2022-07-24T06:09:57;99528.06;;;18.83;100.00
55373;BME280;41249;47.838;16.490;2022-07-24T06:12:24;99523.44;;;19.08;100.00
55373;BME280;41249;47.838;16.490;2022-07-24T06:14:52;99528.09;;;19.38;100.00
55373;BME280;41249;47.838;16.490;2022-07-24T06:17:19;99525.59;;;19.18;100.00
55373;BME280;41249;47.838;16.490;2022-07-24T06:19:45;99532.50;;;19.14;100.00
55373;BME280;41249;47.838;16.490;2022-07-24T06:22:12;99539.69;;;19.38;100.00
55373;BME280;41249;47.838;16.490;2022-07-24T06:24:39;99539.03;;;19.43;100.00
55373;BME280;41249;47.838;16.490;2022-07-24T06:27:05;99547.47;;;19.46;100.00
55373;BME280;41249;47.838;16.490;2022-07-24T06:29:38;99550.00;;;19.60;100.00
55373;BME280;41249;47.838;16.490;2022-07-24T06:32:05;99550.47;;;19.57;100.00
55373;BME280;41249;47.838;16.490;2022-07-24T06:34:31;99552.38;;;19.68;100.00
55373;BME280;41249;47.838;16.490;2022-07-24T06:36:58;99547.06;;;19.91;100.00
55373;BME280;41249;47.838;16.490;2022-07-24T06:39:25;99543.28;;;20.11;100.00
55373;BME280;41249;47.838;16.490;2022-07-24T06:41:51;99553.16;;;19.87;96.95
55373;BME280;41249;47.838;16.490;2022-07-24T06:44:24;99553.59;;;19.84;99.92
55373;BME280;41249;47.838;16.490;2022-07-24T06:46:51;99556.34;;;20.14;96.64
55373;BME280;41249;47.838;16.490;2022-07-24T06:49:18;99552.81;;;20.25;95.79
55373;BME280;41249;47.838;16.490;2022-07-24T06:51:45;99551.88;;;20.19;89.94
55373;BME280;41249;47.838;16.490;2022-07-24T06:54:14;99563.47;;;20.08;89.57
55373;BME280;41249;47.838;16.490;2022-07-24T06:56:41;99555.28;;;20.15;90.14
55373;BME280;41249;47.838;16.490;2022-07-24T06:59:08;99565.34;;;19.89;91.72
55373;BME280;41249;47.838;16.490;2022-07-24T07:01:34;99558.06;;;20.73;89.80
55373;BME280;41249;47.838;16.490;2022-07-24T07:04:01;99551.47;;;20.93;83.07
55373;BME280;41249;47.838;16.490;2022-07-24T07:06:28;99560.66;;;20.80;81.50
55373;BME280;41249;47.838;16.490;2022-07-24T07:08:55;99559.94;;;20.73;81.91
55373;BME280;41249;47.838;16.490;2022-07-24T07:11:22;99549.09;;;20.61;80.81
55373;BME280;41249;47.838;16.490;2022-07-24T07:13:48;99555.03;;;20.93;78.93
55373;BME280;41249;47.838;16.490;2022-07-24T07:16:15;99552.66;;;21.08;78.20
55373;BME280;41249;47.838;16.490;2022-07-24T07:18:42;99535.13;;;20.99;73.98
55373;BME280;41249;47.838;16.490;2022-07-24T07:21:09;99554.03;;;21.23;72.17
55373;BME280;41249;47.838;16.490;2022-07-24T07:23:36;99551.44;;;21.39;68.96
55373;BME280;41249;47.838;16.490;2022-07-24T07:26:02;99556.28;;;21.66;69.61
55373;BME280;41249;47.838;16.490;2022-07-24T07:28:29;99537.22;;;21.73;67.66
55373;BME280;41249;47.838;16.490;2022-07-24T07:30:56;99541.91;;;21.94;70.38
55373;BME280;41249;47.838;16.490;2022-07-24T07:33:23;99557.78;;;21.74;65.39
55373;BME280;41249;47.838;16.490;2022-07-24T07:35:49;99544.53;;;21.89;65.78
55373;BME280;41249;47.838;16.490;2022-07-24T07:38:16;99539.41;;;22.04;64.43
55373;BME280;41249;47.838;16.490;2022-07-24T07:40:49;99533.91;;;22.16;63.00
55373;BME280;41249;47.838;16.490;2022-07-24T07:43:16;99539.09;;;22.51;67.25
55373;BME280;41249;47.838;16.490;2022-07-24T07:45:43;99541.00;;;22.34;62.89
55373;BME280;41249;47.838;16.490;2022-07-24T07:48:09;99538.13;;;22.57;60.48
55373;BME280;41249;47.838;16.490;2022-07-24T07:50:36;99536.56;;;22.61;59.70
55373;BME280;41249;47.838;16.490;2022-07-24T07:53:03;99555.81;;;22.14;58.55
55373;BME280;41249;47.838;16.490;2022-07-24T07:55:30;99542.88;;;22.50;59.49
55373;BME280;41249;47.838;16.490;2022-07-24T07:57:57;99547.72;;;22.48;58.06
55373;BME280;41249;47.838;16.490;2022-07-24T08:00:33;99542.47;;;22.25;55.42
55373;BME280;41249;47.838;16.490;2022-07-24T08:03:00;99541.38;;;22.09;56.87
55373;BME280;41249;47.838;16.490;2022-07-24T08:05:28;99545.69;;;22.38;54.35
55373;BME280;41249;47.838;16.490;2022-07-24T08:07:55;99541.25;;;22.49;54.39
55373;BME280;41249;47.838;16.490;2022-07-24T08:10:22;99539.56;;;22.65;54.00
55373;BME280;41249;47.838;16.490;2022-07-24T08:12:49;99548.84;;;22.86;52.73
55373;BME280;41249;47.838;16.490;2022-07-24T08:15:16;99547.38;;;22.28;54.59
55373;BME280;41249;47.838;16.490;2022-07-24T08:17:43;99548.38;;;22.55;51.89
55373;BME280;41249;47.838;16.490;2022-07-24T08:20:11;99548.56;;;22.32;53.30
55373;BME280;41249;47.838;16.490;2022-07-24T08:22:39;99533.25;;;22.93;50.33
55373;BME280;41249;47.838;16.490;2022-07-24T08:25:06;99536.25;;;22.74;48.98
55373;BME280;41249;47.838;16.490;2022-07-24T08:27:36;99535.25;;;23.41;50.41
55373;BME280;41249;47.838;16.490;2022-07-24T08:30:07;99537.34;;;23.17;46.26
55373;BME280;41249;47.838;16.490;2022-07-24T08:32:35;99546.88;;;22.64;46.62
55373;BME280;41249;47.838;16.490;2022-07-24T08:35:02;99543.91;;;23.21;46.29
55373;BME280;41249;47.838;16.490;2022-07-24T08:37:29;99537.31;;;23.12;46.83
55373;BME280;41249;47.838;16.490;2022-07-24T08:39:56;99538.50;;;23.65;43.99
55373;BME280;41249;47.838;16.490;2022-07-24T08:42:22;99541.75;;;23.67;44.79
55373;BME280;41249;47.838;16.490;2022-07-24T08:44:49;99539.91;;;23.95;45.78
55373;BME280;41249;47.838;16.490;2022-07-24T08:47:26;99542.44;;;24.65;43.04
55373;BME280;41249;47.838;16.490;2022-07-24T08:49:55;99540.91;;;23.62;46.34
55373;BME280;41249;47.838;16.490;2022-07-24T08:52:24;99532.84;;;23.94;44.24
55373;BME280;41249;47.838;16.490;2022-07-24T08:54:52;99533.13;;;23.70;43.37
55373;BME280;41249;47.838;16.490;2022-07-24T08:57:21;99533.41;;;23.03;42.35
55373;BME280;41249;47.838;16.490;2022-07-24T08:59:48;99544.09;;;23.15;42.66
55373;BME280;41249;47.838;16.490;2022-07-24T09:02:15;99538.53;;;23.92;40.55
55373;BME280;41249;47.838;16.490;2022-07-24T09:04:44;99545.88;;;23.92;41.84
55373;BME280;41249;47.838;16.490;2022-07-24T09:07:13;99548.47;;;24.08;42.45
55373;BME280;41249;47.838;16.490;2022-07-24T09:09:42;99542.25;;;24.13;40.04
55373;BME280;41249;47.838;16.490;2022-07-24T09:12:15;99539.16;;;23.99;38.79
55373;BME280;41249;47.838;16.490;2022-07-24T09:14:45;99549.91;;;23.23;36.29
55373;BME280;41249;47.838;16.490;2022-07-24T09:17:15;99545.63;;;23.27;36.99
55373;BME280;41249;47.838;16.490;2022-07-24T09:19:54;99543.94;;;24.19;37.01
55373;BME280;41249;47.838;16.490;2022-07-24T09:22:32;99538.47;;;24.14;34.02
55373;BME280;41249;47.838;16.490;2022-07-24T09:25:07;99542.34;;;24.23;35.75
55373;BME280;41249;47.838;16.490;2022-07-24T09:27:36;99540.78;;;25.07;37.07
55373;BME280;41249;47.838;16.490;2022-07-24T09:30:05;99546.28;;;25.17;36.22
55373;BME280;41249;47.838;16.490;2022-07-24T09:32:38;99545.72;;;24.40;35.13
55373;BME280;41249;47.838;16.490;2022-07-24T09:35:05;99550.81;;;24.59;35.87
55373;BME280;41249;47.838;16.490;2022-07-24T09:37:32;99547.41;;;24.47;36.35
55373;BME280;41249;47.838;16.490;2022-07-24T09:40:07;99539.03;;;24.90;35.47
55373;BME280;41249;47.838;16.490;2022-07-24T09:42:34;99535.38;;;24.70;36.78
55373;BME280;41249;47.838;16.490;2022-07-24T09:45:07;99541.91;;;25.11;34.33
55373;BME280;41249;47.838;16.490;2022-07-24T09:47:35;99531.34;;;25.25;34.78
55373;BME280;41249;47.838;16.490;2022-07-24T09:50:13;99537.41;;;25.47;34.46
55373;BME280;41249;47.838;16.490;2022-07-24T09:52:41;99544.75;;;25.36;32.58
55373;BME280;41249;47.838;16.490;2022-07-24T09:55:20;99530.63;;;25.55;32.63
55373;BME280;41249;47.838;16.490;2022-07-24T09:57:47;99529.00;;;25.54;32.63
55373;BME280;41249;47.838;16.490;2022-07-24T10:00:15;99530.88;;;25.48;32.66
55373;BME280;41249;47.838;16.490;2022-07-24T10:02:43;99528.38;;;24.47;33.72
55373;BME280;41249;47.838;16.490;2022-07-24T10:05:11;99523.06;;;25.04;33.58
55373;BME280;41249;47.838;16.490;2022-07-24T10:07:48;99539.44;;;25.09;33.76
55373;BME280;41249;47.838;16.490;2022-07-24T10:10:15;99524.03;;;24.46;34.36
55373;BME280;41249;47.838;16.490;2022-07-24T10:12:44;99532.63;;;24.32;34.57
55373;BME280;41249;47.838;16.490;2022-07-24T10:15:12;99522.25;;;25.04;33.99
55373;BME280;41249;47.838;16.490;2022-07-24T10:18:00;99516.41;;;24.80;34.43
55373;BME280;41249;47.838;16.490;2022-07-24T10:20:39;99515.56;;;25.22;34.22
55373;BME280;41249;47.838;16.490;2022-07-24T10:26:04;99509.47;;;25.77;34.20
55373;BME280;41249;47.838;16.490;2022-07-24T10:28:43;99509.19;;;25.68;34.46
55373;BME280;41249;47.838;16.490;2022-07-24T10:31:12;99512.22;;;25.97;33.75
55373;BME280;41249;47.838;16.490;2022-07-24T10:33:41;99499.72;;;25.86;32.98
55373;BME280;41249;47.838;16.490;2022-07-24T10:36:19;99492.13;;;26.29;32.47
55373;BME280;41249;47.838;16.490;2022-07-24T10:42:05;99499.69;;;25.76;34.38
55373;BME280;41249;47.838;16.490;2022-07-24T10:44:32;99492.34;;;26.17;33.75
55373;BME280;41249;47.838;16.490;2022-07-24T10:47:08;99482.81;;;26.20;33.12
55373;BME280;41249;47.838;16.490;2022-07-24T10:49:47;99488.00;;;26.52;32.85
55373;BME280;41249;47.838;16.490;2022-07-24T10:52:26;99486.09;;;26.01;33.10
55373;BME280;41249;47.838;16.490;2022-07-24T10:55:22;99492.63;;;26.06;34.53
55373;BME280;41249;47.838;16.490;2022-07-24T10:58:12;99473.50;;;26.62;34.19
55373;BME280;41249;47.838;16.490;2022-07-24T11:00:48;99466.72;;;27.39;33.02
55373;BME280;41249;47.838;16.490;2022-07-24T11:03:21;99478.19;;;26.46;32.66
55373;BME280;41249;47.838;16.490;2022-07-24T11:06:17;99477.66;;;26.08;33.08
55373;BME280;41249;47.838;16.490;2022-07-24T11:08:50;99464.03;;;25.98;33.55
55373;BME280;41249;47.838;16.490;2022-07-24T11:11:20;99468.09;;;26.21;32.33
55373;BME280;41249;47.838;16.490;2022-07-24T11:13:48;99460.75;;;26.47;32.25
55373;BME280;41249;47.838;16.490;2022-07-24T11:21:30;99457.75;;;26.28;33.53
55373;BME280;41249;47.838;16.490;2022-07-24T11:24:24;99455.84;;;26.13;32.47
55373;BME280;41249;47.838;16.490;2022-07-24T11:26:56;99449.56;;;26.13;32.20
55373;BME280;41249;47.838;16.490;2022-07-24T11:29:29;99443.25;;;26.68;32.62
55373;BME280;41249;47.838;16.490;2022-07-24T11:32:02;99442.41;;;26.73;32.01
55373;BME280;41249;47.838;16.490;2022-07-24T11:34:30;99437.50;;;26.70;31.27
55373;BME280;41249;47.838;16.490;2022-07-24T11:36:58;99443.59;;;26.31;31.70
55373;BME280;41249;47.838;16.490;2022-07-24T11:39:33;99452.84;;;25.84;32.61
55373;BME280;41249;47.838;16.490;2022-07-24T11:42:06;99427.81;;;26.23;32.09
55373;BME280;41249;47.838;16.490;2022-07-24T11:44:36;99424.44;;;26.56;30.96
55373;BME280;41249;47.838;16.490;2022-07-24T11:47:07;99419.91;;;27.06;31.20
55373;BME280;41249;47.838;16.490;2022-07-24T11:49:43;99421.44;;;27.23;30.65
55373;BME280;41249;47.838;16.490;2022-07-24T11:52:18;99419.22;;;27.40;30.06
55373;BME280;41249;47.838;16.490;2022-07-24T11:54:46;99437.06;;;26.27;31.04
55373;BME280;41249;47.838;16.490;2022-07-24T11:57:36;99411.41;;;26.43;30.09
55373;BME280;41249;47.838;16.490;2022-07-24T12:00:26;99406.97;;;26.68;30.87
55373;BME280;41249;47.838;16.490;2022-07-24T12:02:59;99404.53;;;26.66;29.85
55373;BME280;41249;47.838;16.490;2022-07-24T12:05:36;99405.34;;;27.26;31.76
55373;BME280;41249;47.838;16.490;2022-07-24T12:08:22;99390.09;;;27.99;30.13
55373;BME280;41249;47.838;16.490;2022-07-24T12:10:58;99395.84;;;27.19;29.55
55373;BME280;41249;47.838;16.490;2022-07-24T12:13:27;99393.41;;;27.17;29.21
55373;BME280;41249;47.838;16.490;2022-07-24T12:15:56;99395.00;;;27.68;29.05
55373;BME280;41249;47.838;16.490;2022-07-24T12:18:23;99389.25;;;26.70;29.22
55373;BME280;41249;47.838;16.490;2022-07-24T12:21:00;99401.91;;;26.20;29.41
55373;BME280;41249;47.838;16.490;2022-07-24T12:23:28;99390.69;;;26.47;29.73
55373;BME280;41249;47.838;16.490;2022-07-24T12:25:59;99382.72;;;27.21;28.65
55373;BME280;41249;47.838;16.490;2022-07-24T12:28:26;99394.47;;;26.56;28.81
55373;BME280;41249;47.838;16.490;2022-07-24T12:30:54;99380.91;;;26.41;29.05
55373;BME280;41249;47.838;16.490;2022-07-24T12:33:25;99372.56;;;26.77;29.18
55373;BME280;41249;47.838;16.490;2022-07-24T12:36:07;99375.66;;;27.15;29.49
55373;BME280;41249;47.838;16.490;2022-07-24T12:38:51;99383.81;;;27.25;28.80
55373;BME280;41249;47.838;16.490;2022-07-24T12:41:20;99390.69;;;26.47;29.68
55373;BME280;41249;47.838;16.490;2022-07-24T12:43:56;99373.41;;;26.77;29.13
55373;BME280;41249;47.838;16.490;2022-07-24T12:46:31;99373.13;;;26.84;28.54
55373;BME280;41249;47.838;16.490;2022-07-24T12:49:02;99372.19;;;27.48;28.51
55373;BME280;41249;47.838;16.490;2022-07-24T12:52:04;99362.88;;;27.54;28.43
55373;BME280;41249;47.838;16.490;2022-07-24T12:54:37;99365.88;;;27.08;28.45
55373;BME280;41249;47.838;16.490;2022-07-24T12:57:11;99353.13;;;27.77;28.37
55373;BME280;41249;47.838;16.490;2022-07-24T12:59:43;99355.47;;;27.60;27.84
55373;BME280;41249;47.838;16.490;2022-07-24T13:02:12;99356.16;;;27.42;28.24
55373;BME280;41249;47.838;16.490;2022-07-24T13:04:49;99363.34;;;26.78;29.01
55373;BME280;41249;47.838;16.490;2022-07-24T13:07:20;99358.28;;;27.05;28.87